sensor_id;sensor_type;location;lat;lon;timestamp;pressure;altitude;pressure_sealevel;temperature;humidity
49104;BME280;34915;52.926;11.116;2023-04-29T00:01:06;100784.16;;;11.04;100.00
49104;BME280;34915;52.926;11.116;2023-04-29T00:03:31;100789.22;;;11.07;100.00
49104;BME280;34915;52.926;11.116;2023-04-29T00:05:57;100778.84;;;11.04;100.00
49104;BME280;34915;52.926;11.116;2023-04-29T00:08:23;100789.44;;;11.04;100.00
49104;BME280;34915;52.926;11.116;2023-04-29T00:10:52;100779.06;;;11.01;100.00
49104;BME280;34915;52.926;11.116;2023-04-29T00:13:18;100772.72;;;11.04;100.00
49104;BME280;34915;52.926;11.116;2023-04-29T00:15:43;100772.06;;;11.00;100.00
49104;BME280;34915;52.926;11.116;2023-04-29T00:18:09;100767.22;;;10.94;100.00
49104;BME280;34915;52.926;11.116;2023-04-29T00:20:36;100772.91;;;11.01;100.00
49104;BME280;34915;52.926;11.116;2023-04-29T00:23:05;100783.72;;;10.98;100.00
49104;BME280;34915;52.926;11.116;2023-04-29T00:25:31;100781.84;;;11.00;100.00
49104;BME280;34915;52.926;11.116;2023-04-29T00:27:56;100762.31;;;11.01;100.00
49104;BME280;34915;52.926;11.116;2023-04-29T00:30:26;100778.00;;;11.04;100.00
49104;BME280;34915;52.926;11.116;2023-04-29T00:32:53;100767.00;;;10.97;100.00
49104;BME280;34915;52.926;11.116;2023-04-29T00:35:20;100787.75;;;11.03;100.00
49104;BME280;34915;52.926;11.116;2023-04-29T00:37:46;100776.41;;;11.01;100.00
49104;BME280;34915;52.926;11.116;2023-04-29T00:40:11;100782.44;;;11.03;100.00
49104;BME280;34915;52.926;11.116;2023-04-29T00:42:39;100778.84;;;11.04;100.00
49104;BME280;34915;52.926;11.116;2023-04-29T00:45:06;100770.19;;;11.02;100.00
49104;BME280;34915;52.926;11.116;2023-04-29T00:47:32;100784.16;;;11.04;100.00
49104;BME280;34915;52.926;11.116;2023-04-29T00:49:58;100780.56;;;11.05;100.00
49104;BME280;34915;52.926;11.116;2023-04-29T00:52:25;100778.63;;;11.07;100.00
49104;BME280;34915;52.926;11.116;2023-04-29T00:54:51;100780.56;;;11.05;100.00
49104;BME280;34915;52.926;11.116;2023-04-29T00:57:18;100783.94;;;11.07;100.00
49104;BME280;34915;52.926;11.116;2023-04-29T00:59:44;100790.94;;;11.08;100.00
49104;BME280;34915;52.926;11.116;2023-04-29T01:02:10;100785.63;;;11.08;100.00
49104;BME280;34915;52.926;11.116;2023-04-29T01:04:36;100783.72;;;11.10;100.00
49104;BME280;34915;52.926;11.116;2023-04-29T01:15:25;100788.78;;;11.13;100.00
49104;BME280;34915;52.926;11.116;2023-04-29T01:18:00;100779.88;;;11.14;100.00
49104;BME280;34915;52.926;11.116;2023-04-29T01:20:29;100778.91;;;11.15;100.00
49104;BME280;34915;52.926;11.116;2023-04-29T01:22:55;100777.97;;;11.16;100.00
49104;BME280;34915;52.926;11.116;2023-04-29T01:25:20;100767.81;;;11.10;100.00
49104;BME280;34915;52.926;11.116;2023-04-29T01:30:31;100785.41;;;11.11;100.00
49104;BME280;34915;52.926;11.116;2023-04-29T01:33:37;100785.41;;;11.11;100.00
49104;BME280;34915;52.926;11.116;2023-04-29T01:41:47;100796.69;;;11.02;100.00
49104;BME280;34915;52.926;11.116;2023-04-29T01:44:20;100802.16;;;10.99;100.00
49104;BME280;34915;52.926;11.116;2023-04-29T01:46:51;100796.88;;;10.99;100.00
49104;BME280;34915;52.926;11.116;2023-04-29T01:49:25;100812.59;;;11.02;100.00
49104;BME280;34915;52.926;11.116;2023-04-29T01:51:51;100815.53;;;10.98;100.00
49104;BME280;34915;52.926;11.116;2023-04-29T01:54:16;100814.09;;;10.94;100.00
49104;BME280;34915;52.926;11.116;2023-04-29T01:56:42;100819.78;;;11.00;100.00
49104;BME280;34915;52.926;11.116;2023-04-29T01:59:08;100824.47;;;10.97;100.00
49104;BME280;34915;52.926;11.116;2023-04-29T02:01:35;100814.69;;;10.97;100.00
49104;BME280;34915;52.926;11.116;2023-04-29T02:04:01;100814.69;;;10.97;100.00
49104;BME280;34915;52.926;11.116;2023-04-29T02:06:27;100828.91;;;10.96;100.00
49104;BME280;34915;52.926;11.116;2023-04-29T02:08:53;100832.75;;;10.92;100.00
49104;BME280;34915;52.926;11.116;2023-04-29T02:11:18;100832.75;;;10.92;100.00
49104;BME280;34915;52.926;11.116;2023-04-29T02:13:44;100848.22;;;10.98;100.00
49104;BME280;34915;52.926;11.116;2023-04-29T02:16:11;100832.09;;;11.01;100.00
49104;BME280;34915;52.926;11.116;2023-04-29T02:18:37;100843.13;;;10.95;100.00
49104;BME280;34915;52.926;11.116;2023-04-29T02:21:02;100852.63;;;10.98;100.00
49104;BME280;34915;52.926;11.116;2023-04-29T02:23:28;100854.34;;;10.99;100.00
49104;BME280;34915;52.926;11.116;2023-04-29T02:25:55;100855.63;;;10.93;100.00
49104;BME280;34915;52.926;11.116;2023-04-29T02:28:20;100857.31;;;10.94;100.00
49104;BME280;34915;52.926;11.116;2023-04-29T02:30:48;100859.47;;;10.89;100.00
49104;BME280;34915;52.926;11.116;2023-04-29T02:33:13;100866.88;;;10.84;100.00
49104;BME280;34915;52.926;11.116;2023-04-29T02:35:39;100868.13;;;10.79;100.00
49104;BME280;34915;52.926;11.116;2023-04-29T02:38:04;100867.50;;;10.51;100.00
49104;BME280;34915;52.926;11.116;2023-04-29T02:40:30;100878.94;;;10.39;100.00
49104;BME280;34915;52.926;11.116;2023-04-29T02:42:56;100885.28;;;10.24;100.00
49104;BME280;34915;52.926;11.116;2023-04-29T02:45:21;100892.25;;;10.25;100.00
49104;BME280;34915;52.926;11.116;2023-04-29T02:47:47;100893.09;;;10.13;100.00
49104;BME280;34915;52.926;11.116;2023-04-29T02:50:13;100907.66;;;10.06;100.00
49104;BME280;34915;52.926;11.116;2023-04-29T02:52:41;100899.88;;;9.91;100.00
49104;BME280;34915;52.926;11.116;2023-04-29T02:55:07;100913.75;;;9.94;100.00
49104;BME280;34915;52.926;11.116;2023-04-29T02:57:33;100906.94;;;9.90;100.00
49104;BME280;34915;52.926;11.116;2023-04-29T02:59:59;100906.81;;;9.80;100.00
49104;BME280;34915;52.926;11.116;2023-04-29T03:02:25;100924.91;;;9.85;100.00
49104;BME280;34915;52.926;11.116;2023-04-29T03:04:50;100934.41;;;9.76;100.00
49104;BME280;34915;52.926;11.116;2023-04-29T03:07:16;100920.63;;;9.71;100.00
49104;BME280;34915;52.926;11.116;2023-04-29T03:09:42;100934.78;;;9.70;100.00
49104;BME280;34915;52.926;11.116;2023-04-29T03:12:07;100935.19;;;9.64;100.00
49104;BME280;34915;52.926;11.116;2023-04-29T03:14:33;100942.38;;;9.62;100.00
49104;BME280;34915;52.926;11.116;2023-04-29T03:17:00;100943.13;;;9.64;100.00
49104;BME280;34915;52.926;11.116;2023-04-29T03:19:26;100944.63;;;9.68;100.00
49104;BME280;34915;52.926;11.116;2023-04-29T03:21:51;100944.44;;;9.57;100.00
49104;BME280;34915;52.926;11.116;2023-04-29T03:24:17;100954.09;;;9.44;100.00
49104;BME280;34915;52.926;11.116;2023-04-29T03:26:42;100942.03;;;9.40;100.00
49104;BME280;34915;52.926;11.116;2023-04-29T03:29:08;100950.13;;;9.51;100.00
49104;BME280;34915;52.926;11.116;2023-04-29T03:31:34;100955.16;;;9.41;100.00
49104;BME280;34915;52.926;11.116;2023-04-29T03:33:59;100956.38;;;9.36;100.00
49104;BME280;34915;52.926;11.116;2023-04-29T03:36:25;100964.88;;;9.41;100.00
49104;BME280;34915;52.926;11.116;2023-04-29T03:38:50;100958.09;;;9.37;100.00
49104;BME280;34915;52.926;11.116;2023-04-29T03:41:16;100949.38;;;9.35;100.00
49104;BME280;34915;52.926;11.116;2023-04-29T03:43:42;100965.44;;;9.32;100.00
49104;BME280;34915;52.926;11.116;2023-04-29T03:46:10;100968.88;;;9.34;100.00
49104;BME280;34915;52.926;11.116;2023-04-29T03:48:36;100975.00;;;9.34;100.00
49104;BME280;34915;52.926;11.116;2023-04-29T03:51:02;100971.50;;;9.34;100.00
49104;BME280;34915;52.926;11.116;2023-04-29T03:53:30;100977.91;;;9.30;100.00
49104;BME280;34915;52.926;11.116;2023-04-29T03:55:57;100977.09;;;9.30;100.00
49104;BME280;34915;52.926;11.116;2023-04-29T03:58:23;100976.22;;;9.29;100.00
49104;BME280;34915;52.926;11.116;2023-04-29T04:00:52;100968.28;;;9.29;100.00
49104;BME280;34915;52.926;11.116;2023-04-29T04:03:17;100988.31;;;9.33;100.00
49104;BME280;34915;52.926;11.116;2023-04-29T04:05:43;100977.91;;;9.30;100.00
49104;BME280;34915;52.926;11.116;2023-04-29T04:08:08;100996.03;;;9.36;100.00
49104;BME280;34915;52.926;11.116;2023-04-29T04:10:35;100993.78;;;9.30;100.00
49104;BME280;34915;52.926;11.116;2023-04-29T04:13:01;101006.25;;;9.28;100.00
49104;BME280;34915;52.926;11.116;2023-04-29T04:15:26;101013.78;;;9.20;100.00
49104;BME280;34915;52.926;11.116;2023-04-29T04:17:52;101005.09;;;9.32;100.00
49104;BME280;34915;52.926;11.116;2023-04-29T04:20:17;101014.94;;;9.30;100.00
49104;BME280;34915;52.926;11.116;2023-04-29T04:22:43;101015.78;;;9.31;100.00
49104;BME280;34915;52.926;11.116;2023-04-29T04:25:09;101014.94;;;9.30;100.00
49104;BME280;34915;52.926;11.116;2023-04-29T04:27:35;101018.69;;;9.26;100.00
49104;BME280;34915;52.926;11.116;2023-04-29T04:30:01;101025.47;;;9.16;100.00
49104;BME280;34915;52.926;11.116;2023-04-29T04:32:26;101023.78;;;9.29;100.00
49104;BME280;34915;52.926;11.116;2023-04-29T04:34:52;101032.31;;;9.34;100.00
49104;BME280;34915;52.926;11.116;2023-04-29T04:37:17;101037.97;;;9.28;100.00
49104;BME280;34915;52.926;11.116;2023-04-29T04:39:43;101048.69;;;9.25;100.00
49104;BME280;34915;52.926;11.116;2023-04-29T04:42:08;101048.38;;;9.31;100.00
49104;BME280;34915;52.926;11.116;2023-04-29T04:44:34;101048.88;;;9.22;100.00
49104;BME280;34915;52.926;11.116;2023-04-29T04:46:59;101059.47;;;9.22;100.00
49104;BME280;34915;52.926;11.116;2023-04-29T04:49:25;101066.47;;;9.23;100.00
49104;BME280;34915;52.926;11.116;2023-04-29T04:51:52;101059.66;;;9.19;100.00
49104;BME280;34915;52.926;11.116;2023-04-29T04:54:18;101067.00;;;9.14;100.00
49104;BME280;34915;52.926;11.116;2023-04-29T04:56:43;101066.28;;;9.12;100.00
49104;BME280;34915;52.926;11.116;2023-04-29T04:59:09;101079.78;;;9.22;100.00
49104;BME280;34915;52.926;11.116;2023-04-29T05:01:35;101091.97;;;9.24;100.00
49104;BME280;34915;52.926;11.116;2023-04-29T05:04:00;101087.78;;;9.20;100.00
49104;BME280;34915;52.926;11.116;2023-04-29T05:06:27;101079.84;;;9.06;100.00
49104;BME280;34915;52.926;11.116;2023-04-29T05:08:53;101092.34;;;9.18;100.00
49104;BME280;34915;52.926;11.116;2023-04-29T05:11:20;101100.44;;;9.15;100.00
49104;BME280;34915;52.926;11.116;2023-04-29T05:13:46;101092.34;;;9.18;100.00
49104;BME280;34915;52.926;11.116;2023-04-29T05:16:12;101109.66;;;9.08;100.00
49104;BME280;34915;52.926;11.116;2023-04-29T05:18:37;101109.31;;;9.14;100.00
49104;BME280;34915;52.926;11.116;2023-04-29T05:21:03;101109.56;;;9.10;100.00
49104;BME280;34915;52.926;11.116;2023-04-29T05:23:29;101112.13;;;9.11;100.00
49104;BME280;34915;52.926;11.116;2023-04-29T05:25:54;101110.84;;;9.18;100.00
49104;BME280;34915;52.926;11.116;2023-04-29T05:28:20;101116.47;;;9.12;100.00
49104;BME280;34915;52.926;11.116;2023-04-29T05:30:49;101117.97;;;9.16;100.00
49104;BME280;34915;52.926;11.116;2023-04-29T05:33:14;101121.78;;;9.12;100.00
49104;BME280;34915;52.926;11.116;2023-04-29T05:35:40;101124.22;;;9.15;100.00
49104;BME280;34915;52.926;11.116;2023-04-29T05:38:06;101129.72;;;9.26;100.00
49104;BME280;34915;52.926;11.116;2023-04-29T05:40:31;101139.09;;;9.32;100.00
49104;BME280;34915;52.926;11.116;2023-04-29T05:42:57;101134.63;;;9.32;100.00
49104;BME280;34915;52.926;11.116;2023-04-29T05:45:22;101143.16;;;9.37;100.00
49104;BME280;34915;52.926;11.116;2023-04-29T05:47:48;101141.44;;;9.36;100.00
49104;BME280;34915;52.926;11.116;2023-04-29T05:50:14;101151.47;;;9.45;100.00
49104;BME280;34915;52.926;11.116;2023-04-29T05:52:42;101156.94;;;9.42;100.00
49104;BME280;34915;52.926;11.116;2023-04-29T05:55:08;101153.19;;;9.46;100.00
49104;BME280;34915;52.926;11.116;2023-04-29T05:57:34;101166.97;;;9.51;100.00
49104;BME280;34915;52.926;11.116;2023-04-29T05:59:59;101166.03;;;9.52;100.00
49104;BME280;34915;52.926;11.116;2023-04-29T06:02:26;101163.38;;;9.52;100.00
49104;BME280;34915;52.926;11.116;2023-04-29T06:04:51;101169.06;;;9.46;100.00
49104;BME280;34915;52.926;11.116;2023-04-29T06:07:17;101169.06;;;9.46;100.00
49104;BME280;34915;52.926;11.116;2023-04-29T06:09:43;101173.97;;;9.52;100.00
49104;BME280;34915;52.926;11.116;2023-04-29T06:12:09;101184.38;;;9.69;100.00
49104;BME280;34915;52.926;11.116;2023-04-29T06:14:34;101191.00;;;9.62;100.00
49104;BME280;34915;52.926;11.116;2023-04-29T06:17:00;101190.81;;;9.65;100.00
49104;BME280;34915;52.926;11.116;2023-04-29T06:19:26;101202.31;;;9.64;100.00
49104;BME280;34915;52.926;11.116;2023-04-29T06:21:52;101202.75;;;9.72;100.00
49104;BME280;34915;52.926;11.116;2023-04-29T06:24:17;101205.72;;;9.66;100.00
49104;BME280;34915;52.926;11.116;2023-04-29T06:26:43;101215.72;;;9.61;100.00
49104;BME280;34915;52.926;11.116;2023-04-29T06:29:08;101206.88;;;9.62;100.00
49104;BME280;34915;52.926;11.116;2023-04-29T06:31:34;101211.41;;;9.74;100.00
49104;BME280;34915;52.926;11.116;2023-04-29T06:33:59;101219.72;;;9.68;100.00
49104;BME280;34915;52.926;11.116;2023-04-29T06:36:25;101222.19;;;9.71;100.00
49104;BME280;34915;52.926;11.116;2023-04-29T06:38:51;101221.63;;;9.80;100.00
49104;BME280;34915;52.926;11.116;2023-04-29T06:41:17;101226.75;;;9.82;100.00
49104;BME280;34915;52.926;11.116;2023-04-29T06:43:43;101232.41;;;9.77;100.00
49104;BME280;34915;52.926;11.116;2023-04-29T06:46:09;101237.63;;;9.92;100.00
49104;BME280;34915;52.926;11.116;2023-04-29T06:48:35;101244.31;;;9.83;100.00
49104;BME280;34915;52.926;11.116;2023-04-29T06:51:01;101252.00;;;9.88;100.00
49104;BME280;34915;52.926;11.116;2023-04-29T06:53:27;101257.28;;;9.88;100.00
49104;BME280;34915;52.926;11.116;2023-04-29T06:55:53;101246.63;;;10.03;100.00
49104;BME280;34915;52.926;11.116;2023-04-29T06:58:18;101265.88;;;9.91;100.00
49104;BME280;34915;52.926;11.116;2023-04-29T07:00:46;101258.47;;;9.98;100.00
49104;BME280;34915;52.926;11.116;2023-04-29T07:03:12;101257.03;;;10.06;100.00
49104;BME280;34915;52.926;11.116;2023-04-29T07:05:38;101263.75;;;9.98;100.00
49104;BME280;34915;52.926;11.116;2023-04-29T07:08:06;101260.66;;;10.05;100.00
49104;BME280;34915;52.926;11.116;2023-04-29T07:10:32;101269.72;;;10.01;100.00
49104;BME280;34915;52.926;11.116;2023-04-29T07:12:58;101279.00;;;10.08;100.00
49104;BME280;34915;52.926;11.116;2023-04-29T07:15:29;101280.72;;;10.23;100.00
49104;BME280;34915;52.926;11.116;2023-04-29T07:17:55;101282.78;;;10.18;100.00
49104;BME280;34915;52.926;11.116;2023-04-29T07:20:21;101291.84;;;10.14;100.00
49104;BME280;34915;52.926;11.116;2023-04-29T07:22:47;101288.19;;;10.17;100.00
49104;BME280;34915;52.926;11.116;2023-04-29T07:25:13;101294.31;;;10.31;100.00
49104;BME280;34915;52.926;11.116;2023-04-29T07:27:38;101293.66;;;10.28;100.00
49104;BME280;34915;52.926;11.116;2023-04-29T07:30:05;101303.59;;;10.24;100.00
49104;BME280;34915;52.926;11.116;2023-04-29T07:32:31;101302.28;;;10.45;100.00
49104;BME280;34915;52.926;11.116;2023-04-29T07:34:57;101303.44;;;10.55;100.00
49104;BME280;34915;52.926;11.116;2023-04-29T07:37:23;101311.66;;;10.50;100.00
49104;BME280;34915;52.926;11.116;2023-04-29T07:39:49;101324.06;;;10.64;100.00
49104;BME280;34915;52.926;11.116;2023-04-29T07:42:18;101309.88;;;10.37;100.00
49104;BME280;34915;52.926;11.116;2023-04-29T07:44:43;101327.06;;;10.72;100.00
49104;BME280;34915;52.926;11.116;2023-04-29T07:47:12;101324.44;;;10.58;100.00
49104;BME280;34915;52.926;11.116;2023-04-29T07:49:38;101337.50;;;10.61;100.00
49104;BME280;34915;52.926;11.116;2023-04-29T07:52:04;101328.78;;;10.73;100.00
49104;BME280;34915;52.926;11.116;2023-04-29T07:54:30;101335.22;;;10.82;100.00
49104;BME280;34915;52.926;11.116;2023-04-29T07:56:59;101337.00;;;10.96;100.00
49104;BME280;34915;52.926;11.116;2023-04-29T07:59:25;101334.00;;;11.28;100.00
49104;BME280;34915;52.926;11.116;2023-04-29T08:01:51;101335.38;;;11.07;100.00
49104;BME280;34915;52.926;11.116;2023-04-29T08:04:17;101343.91;;;10.84;100.00
49104;BME280;34915;52.926;11.116;2023-04-29T08:06:43;101351.69;;;10.74;100.00
49104;BME280;34915;52.926;11.116;2023-04-29T08:09:11;101351.69;;;10.74;100.00
49104;BME280;34915;52.926;11.116;2023-04-29T08:11:39;101358.88;;;10.85;100.00
49104;BME280;34915;52.926;11.116;2023-04-29T08:14:05;101367.56;;;10.87;100.00
49104;BME280;34915;52.926;11.116;2023-04-29T08:16:30;101360.75;;;10.97;100.00
49104;BME280;34915;52.926;11.116;2023-04-29T08:18:56;101367.53;;;11.15;100.00
49104;BME280;34915;52.926;11.116;2023-04-29T08:21:22;101369.66;;;11.10;100.00
49104;BME280;34915;52.926;11.116;2023-04-29T08:23:48;101370.78;;;11.20;100.00
49104;BME280;34915;52.926;11.116;2023-04-29T08:26:13;101368.31;;;11.17;100.00
49104;BME280;34915;52.926;11.116;2023-04-29T08:28:39;101374.06;;;11.37;100.00
49104;BME280;34915;52.926;11.116;2023-04-29T08:31:05;101387.97;;;11.41;100.00
49104;BME280;34915;52.926;11.116;2023-04-29T08:33:35;101384.00;;;11.48;100.00
49104;BME280;34915;52.926;11.116;2023-04-29T08:36:01;101376.31;;;11.43;100.00
49104;BME280;34915;52.926;11.116;2023-04-29T08:38:30;101389.22;;;11.76;100.00
49104;BME280;34915;52.926;11.116;2023-04-29T08:40:56;101397.63;;;12.08;100.00
49104;BME280;34915;52.926;11.116;2023-04-29T08:43:22;101383.69;;;12.43;100.00
49104;BME280;34915;52.926;11.116;2023-04-29T08:45:48;101379.47;;;12.90;100.00
49104;BME280;34915;52.926;11.116;2023-04-29T08:48:15;101391.81;;;12.91;96.87
49104;BME280;34915;52.926;11.116;2023-04-29T08:50:41;101404.94;;;12.80;93.08
49104;BME280;34915;52.926;11.116;2023-04-29T08:53:09;101407.09;;;12.88;96.09
49104;BME280;34915;52.926;11.116;2023-04-29T08:55:36;101402.88;;;12.85;99.34
49104;BME280;34915;52.926;11.116;2023-04-29T08:58:06;101411.81;;;12.84;98.43
49104;BME280;34915;52.926;11.116;2023-04-29T09:00:33;101419.97;;;12.81;98.21
49104;BME280;34915;52.926;11.116;2023-04-29T09:03:00;101425.63;;;12.89;92.89
49104;BME280;34915;52.926;11.116;2023-04-29T09:05:29;101423.28;;;12.97;93.13
49104;BME280;34915;52.926;11.116;2023-04-29T09:07:56;101424.34;;;13.07;94.35
49104;BME280;34915;52.926;11.116;2023-04-29T09:10:27;101422.84;;;12.78;90.66
49104;BME280;34915;52.926;11.116;2023-04-29T09:12:56;101405.84;;;12.93;91.16
49104;BME280;34915;52.926;11.116;2023-04-29T09:15:22;101423.72;;;13.16;91.66
49104;BME280;34915;52.926;11.116;2023-04-29T09:17:48;101434.13;;;13.19;90.10
49104;BME280;34915;52.926;11.116;2023-04-29T09:22:51;101430.97;;;13.85;92.53
49104;BME280;34915;52.926;11.116;2023-04-29T09:25:17;101431.44;;;14.03;91.98
49104;BME280;34915;52.926;11.116;2023-04-29T09:27:42;101436.78;;;14.26;91.13
49104;BME280;34915;52.926;11.116;2023-04-29T09:30:08;101433.38;;;14.24;86.30
49104;BME280;34915;52.926;11.116;2023-04-29T09:32:35;101449.19;;;13.91;85.75
49104;BME280;34915;52.926;11.116;2023-04-29T09:35:24;101443.09;;;13.89;89.16
49104;BME280;34915;52.926;11.116;2023-04-29T09:37:50;101432.44;;;13.89;85.19
49104;BME280;34915;52.926;11.116;2023-04-29T09:40:32;101453.31;;;13.95;84.90
49104;BME280;34915;52.926;11.116;2023-04-29T09:42:59;101451.81;;;14.27;84.85
49104;BME280;34915;52.926;11.116;2023-04-29T09:45:40;101472.94;;;13.94;83.09
49104;BME280;34915;52.926;11.116;2023-04-29T09:48:07;101462.56;;;14.02;80.36
49104;BME280;34915;52.926;11.116;2023-04-29T09:50:38;101459.44;;;14.21;83.16
49104;BME280;34915;52.926;11.116;2023-04-29T09:53:05;101462.78;;;14.35;82.93
49104;BME280;34915;52.926;11.116;2023-04-29T09:55:56;101473.06;;;14.63;83.76
49104;BME280;34915;52.926;11.116;2023-04-29T09:58:29;101470.25;;;14.30;82.82
49104;BME280;34915;52.926;11.116;2023-04-29T10:00:58;101475.88;;;14.15;83.50
49104;BME280;34915;52.926;11.116;2023-04-29T10:03:36;101485.56;;;13.68;83.66
49104;BME280;34915;52.926;11.116;2023-04-29T10:06:06;101484.94;;;13.64;83.84
49104;BME280;34915;52.926;11.116;2023-04-29T10:08:33;101482.19;;;13.66;84.19
49104;BME280;34915;52.926;11.116;2023-04-29T10:11:01;101485.38;;;14.06;83.61
49104;BME280;34915;52.926;11.116;2023-04-29T10:13:27;101493.63;;;14.50;83.92
49104;BME280;34915;52.926;11.116;2023-04-29T10:16:28;101484.44;;;14.65;77.37
49104;BME280;34915;52.926;11.116;2023-04-29T10:18:55;101488.41;;;14.93;77.54
49104;BME280;34915;52.926;11.116;2023-04-29T10:21:27;101482.38;;;15.13;77.26
49104;BME280;34915;52.926;11.116;2023-04-29T10:23:56;101478.75;;;15.03;78.42
49104;BME280;34915;52.926;11.116;2023-04-29T10:26:26;101480.25;;;15.29;73.72
49104;BME280;34915;52.926;11.116;2023-04-29T10:28:54;101475.66;;;15.42;77.89
49104;BME280;34915;52.926;11.116;2023-04-29T10:31:20;101468.97;;;15.26;73.11
49104;BME280;34915;52.926;11.116;2023-04-29T10:33:47;101463.03;;;15.22;74.53
49104;BME280;34915;52.926;11.116;2023-04-29T10:36:14;101477.34;;;15.43;74.81
49104;BME280;34915;52.926;11.116;2023-04-29T10:38:41;101483.41;;;15.34;75.49
49104;BME280;34915;52.926;11.116;2023-04-29T10:41:32;101489.94;;;15.19;68.33
49104;BME280;34915;52.926;11.116;2023-04-29T10:43:59;101486.81;;;15.36;72.15
49104;BME280;34915;52.926;11.116;2023-04-29T10:46:25;101484.38;;;15.55;74.20
49104;BME280;34915;52.926;11.116;2023-04-29T10:49:02;101480.84;;;15.76;71.46
49104;BME280;34915;52.926;11.116;2023-04-29T10:51:41;101480.41;;;16.13;72.18
49104;BME280;34915;52.926;11.116;2023-04-29T10:54:12;101483.56;;;16.18;73.68
49104;BME280;34915;52.926;11.116;2023-04-29T10:56:46;101478.28;;;15.96;71.34
49104;BME280;34915;52.926;11.116;2023-04-29T10:59:14;101482.91;;;15.83;67.91
49104;BME280;34915;52.926;11.116;2023-04-29T11:01:52;101488.31;;;16.15;73.08
49104;BME280;34915;52.926;11.116;2023-04-29T11:04:19;101485.25;;;16.19;70.59
49104;BME280;34915;52.926;11.116;2023-04-29T11:11:55;101496.75;;;15.67;64.64
49104;BME280;34915;52.926;11.116;2023-04-29T11:14:28;101496.53;;;15.48;65.73
49104;BME280;34915;52.926;11.116;2023-04-29T11:16:58;101498.22;;;15.71;66.73
49104;BME280;34915;52.926;11.116;2023-04-29T11:19:35;101495.53;;;15.81;64.07
49104;BME280;34915;52.926;11.116;2023-04-29T11:24:54;101501.38;;;15.76;70.22
49104;BME280;34915;52.926;11.116;2023-04-29T11:27:22;101504.66;;;15.68;69.43
49104;BME280;34915;52.926;11.116;2023-04-29T11:29:51;101498.72;;;15.65;65.73
49104;BME280;34915;52.926;11.116;2023-04-29T11:32:22;101493.63;;;15.62;69.13
49104;BME280;34915;52.926;11.116;2023-04-29T11:34:50;101502.22;;;15.65;64.41
49104;BME280;34915;52.926;11.116;2023-04-29T11:37:24;101492.13;;;15.79;63.64
49104;BME280;34915;52.926;11.116;2023-04-29T11:39:50;101491.91;;;15.82;61.31
49104;BME280;34915;52.926;11.116;2023-04-29T11:42:20;101497.91;;;16.17;62.45
49104;BME280;34915;52.926;11.116;2023-04-29T11:44:46;101487.22;;;16.17;61.83
49104;BME280;34915;52.926;11.116;2023-04-29T11:47:15;101501.78;;;16.13;58.75
49104;BME280;34915;52.926;11.116;2023-04-29T11:49:41;101492.81;;;16.14;59.12
49104;BME280;34915;52.926;11.116;2023-04-29T11:52:07;101498.16;;;16.14;59.03
49104;BME280;34915;52.926;11.116;2023-04-29T11:54:33;101499.63;;;16.18;60.81
49104;BME280;34915;52.926;11.116;2023-04-29T11:56:58;101502.75;;;16.34;59.60
49104;BME280;34915;52.926;11.116;2023-04-29T11:59:25;101494.88;;;16.53;62.09
49104;BME280;34915;52.926;11.116;2023-04-29T12:01:51;101503.66;;;16.55;59.09
49104;BME280;34915;52.926;11.116;2023-04-29T12:04:17;101508.44;;;16.40;59.61
49104;BME280;34915;52.926;11.116;2023-04-29T12:06:44;101505.84;;;16.50;60.84
49104;BME280;34915;52.926;11.116;2023-04-29T12:09:09;101512.06;;;16.50;60.67
49104;BME280;34915;52.926;11.116;2023-04-29T12:11:38;101506.53;;;16.63;62.45
49104;BME280;34915;52.926;11.116;2023-04-29T12:14:04;101514.25;;;16.77;58.70
49104;BME280;34915;52.926;11.116;2023-04-29T12:16:33;101515.97;;;16.77;58.37
49104;BME280;34915;52.926;11.116;2023-04-29T12:18:59;101517.66;;;16.78;58.15
49104;BME280;34915;52.926;11.116;2023-04-29T12:21:25;101518.78;;;16.76;59.15
49104;BME280;34915;52.926;11.116;2023-04-29T12:23:58;101522.00;;;16.59;56.09
49104;BME280;34915;52.926;11.116;2023-04-29T12:26:27;101511.34;;;16.69;59.36
49104;BME280;34915;52.926;11.116;2023-04-29T12:28:53;101507.03;;;16.88;58.51
49104;BME280;34915;52.926;11.116;2023-04-29T12:31:19;101517.78;;;16.97;56.49
49104;BME280;34915;52.926;11.116;2023-04-29T12:33:45;101534.06;;;17.05;57.58
49104;BME280;34915;52.926;11.116;2023-04-29T12:36:17;101512.28;;;16.78;56.43
49104;BME280;34915;52.926;11.116;2023-04-29T12:38:44;101520.22;;;16.49;56.96
49104;BME280;34915;52.926;11.116;2023-04-29T12:41:11;101529.16;;;16.17;56.11
49104;BME280;34915;52.926;11.116;2023-04-29T12:43:38;101535.13;;;15.98;55.84
49104;BME280;34915;52.926;11.116;2023-04-29T12:46:05;101533.91;;;15.91;57.61
49104;BME280;34915;52.926;11.116;2023-04-29T12:48:33;101535.13;;;15.98;57.12
49104;BME280;34915;52.926;11.116;2023-04-29T12:50:59;101532.91;;;16.03;58.98
49104;BME280;34915;52.926;11.116;2023-04-29T12:53:26;101539.47;;;16.10;58.23
49104;BME280;34915;52.926;11.116;2023-04-29T12:55:53;101531.94;;;16.37;56.54
49104;BME280;34915;52.926;11.116;2023-04-29T12:58:19;101529.91;;;16.61;60.62
49104;BME280;34915;52.926;11.116;2023-04-29T13:00:44;101541.63;;;16.49;57.85
49104;BME280;34915;52.926;11.116;2023-04-29T13:03:10;101542.88;;;16.34;57.67